Time;durP1;ratioP1;P1;durP2;ratioP2;P2;SDS_P1;SDS_P2;PMS_P1;PMS_P2;Temp;Humidity;BMP_temperature;BMP_pressure;BME280_temperature;BME280_humidity;BME280_pressure;Samples;Min_cycle;Max_cycle;Signal;HPM_P1;HPM_P2
2021/05/02 00:03:26;;;;;;;48.05;36.53;;;;;;;11.78;84.43;99461.92;2952546;80;21556;-59
2021/05/02 00:07:30;;;;;;;54.30;39.03;;;;;;;11.74;84.66;99453.39;2960891;79;21087;-59
2021/05/02 00:11:34;;;;;;;55.73;37.35;;;;;;;11.73;84.90;99450.38;2858294;82;21634;-59
2021/05/02 00:15:38;;;;;;;57.33;36.90;;;;;;;11.73;84.73;99447.72;2817325;84;21117;-59
2021/05/02 00:19:42;;;;;;;51.95;36.68;;;;;;;11.66;85.04;99439.50;2901649;82;21129;-60
2021/05/02 00:23:47;;;;;;;54.75;37.63;;;;;;;11.66;85.24;99429.36;2901189;82;21144;-59
2021/05/02 00:27:50;;;;;;;54.30;37.45;;;;;;;11.67;85.26;99422.52;2901295;82;21551;-59
2021/05/02 00:31:54;;;;;;;49.18;36.15;;;;;;;11.63;85.24;99408.36;2901150;82;21133;-59
2021/05/02 00:35:59;;;;;;;52.65;37.55;;;;;;;11.62;85.62;99397.36;2900986;81;21583;-59
2021/05/02 00:40:04;;;;;;;47.75;34.05;;;;;;;11.61;85.94;99383.70;2901080;82;21598;-58
2021/05/02 00:44:25;;;;;;;51.45;35.60;;;;;;;11.62;86.10;99374.72;2901380;82;21136;-58
2021/05/02 00:48:56;;;;;;;47.98;33.10;;;;;;;11.64;86.24;99378.06;2901290;81;21614;-58
2021/05/02 00:53:26;;;;;;;51.70;36.77;;;;;;;11.63;86.34;99367.07;2901125;82;21551;-58
2021/05/02 00:57:51;;;;;;;56.30;37.50;;;;;;;11.61;86.54;99361.89;2900991;81;21551;-59
2021/05/02 01:01:58;;;;;;;47.20;34.70;;;;;;;11.54;86.86;99345.69;2901265;82;21134;-60
2021/05/02 01:06:08;;;;;;;52.15;38.23;;;;;;;11.50;87.28;99358.16;2900833;82;21118;-61
2021/05/02 01:10:18;;;;;;;50.38;38.63;;;;;;;11.44;87.55;99343.63;2901148;82;21572;-62
2021/05/02 01:14:24;;;;;;;48.85;37.33;;;;;;;11.40;88.23;99340.94;2901304;81;21150;-62
2021/05/02 01:18:27;;;;;;;58.27;39.53;;;;;;;11.39;88.64;99337.42;2901298;82;21074;-61
2021/05/02 01:22:34;;;;;;;55.35;40.85;;;;;;;11.35;88.91;99321.91;2901114;82;21306;-62
2021/05/02 01:26:43;;;;;;;64.12;43.98;;;;;;;11.27;89.26;99314.20;2901155;82;21164;-63
2021/05/02 01:30:47;;;;;;;64.72;44.27;;;;;;;11.17;89.70;99298.80;2901358;82;21129;-65
2021/05/02 01:34:51;;;;;;;61.20;43.28;;;;;;;11.11;90.18;99311.41;2901153;81;21529;-64
2021/05/02 01:38:58;;;;;;;61.08;43.68;;;;;;;11.04;90.75;99324.48;2900895;82;21106;-64
2021/05/02 01:43:02;;;;;;;55.70;42.23;;;;;;;11.02;90.93;99325.64;2901253;82;21090;-64
2021/05/02 01:47:14;;;;;;;59.58;43.90;;;;;;;10.94;91.08;99298.46;2904475;80;21160;-66
2021/05/02 01:51:20;;;;;;;56.33;40.78;;;;;;;10.85;91.21;99274.94;2905849;82;21097;-65
2021/05/02 01:55:23;;;;;;;61.10;42.95;;;;;;;10.77;91.48;99272.18;2905614;82;21141;-65
2021/05/02 01:59:27;;;;;;;63.17;42.75;;;;;;;10.72;91.73;99267.34;2905846;82;21187;-64
2021/05/02 02:03:30;;;;;;;61.90;42.83;;;;;;;10.70;92.29;99268.81;2905556;82;21142;-64
2021/05/02 02:07:39;;;;;;;63.00;44.77;;;;;;;10.69;92.44;99263.15;2905479;80;21065;-65
2021/05/02 02:11:43;;;;;;;59.50;44.50;;;;;;;10.64;92.54;99254.80;2905583;82;21124;-64
2021/05/02 02:15:47;;;;;;;68.87;48.13;;;;;;;10.61;92.68;99243.62;2904356;82;21125;-64
2021/05/02 02:19:52;;;;;;;74.45;47.95;;;;;;;10.57;92.85;99235.09;2900808;82;21583;-64
2021/05/02 02:24:00;;;;;;;63.70;44.18;;;;;;;10.50;92.96;99220.23;2900044;82;21089;-64
2021/05/02 02:28:25;;;;;;;73.30;48.63;;;;;;;10.43;93.23;99189.46;2918485;79;21157;-65
2021/05/02 02:32:29;;;;;;;71.35;49.23;;;;;;;10.33;93.56;99178.02;2812039;83;21118;-65
2021/05/02 02:36:33;;;;;;;64.40;46.63;;;;;;;10.27;93.81;99175.98;2814612;84;21141;-65
2021/05/02 02:40:38;;;;;;;61.60;43.42;;;;;;;10.21;94.13;99173.91;2820203;84;21574;-65
2021/05/02 02:44:47;;;;;;;59.07;45.30;;;;;;;10.19;94.22;99162.59;2820440;84;21583;-67
2021/05/02 02:48:57;;;;;;;57.35;44.70;;;;;;;10.15;94.33;99145.63;2820039;84;21137;-66
2021/05/02 02:53:07;;;;;;;62.65;42.03;;;;;;;10.14;94.42;99132.00;2820101;84;21141;-69
2021/05/02 02:57:14;;;;;;;56.23;40.70;;;;;;;10.07;94.47;99136.26;2820066;84;21568;-68
2021/05/02 03:01:18;;;;;;;58.17;40.38;;;;;;;10.04;94.52;99147.19;2820140;84;21130;-66
2021/05/02 03:05:26;;;;;;;59.90;41.75;;;;;;;10.05;94.98;99142.22;2820323;84;21106;-66
2021/05/02 03:09:31;;;;;;;52.05;38.30;;;;;;;10.08;94.96;99128.62;2820257;84;21129;-67
2021/05/02 03:13:35;;;;;;;56.50;41.50;;;;;;;10.07;94.64;99122.13;2820634;84;21216;-67
2021/05/02 03:17:47;;;;;;;44.25;35.23;;;;;;;10.04;94.82;99139.22;2820183;84;21643;-67
2021/05/02 03:22:09;;;;;;;54.53;39.15;;;;;;;10.04;94.87;99137.89;2853517;83;21599;-66
2021/05/02 03:26:14;;;;;;;55.75;41.23;;;;;;;10.06;95.07;99146.55;2807389;84;21109;-65
2021/05/02 03:30:22;;;;;;;50.10;38.95;;;;;;;10.08;94.97;99148.55;2853654;83;21149;-66
2021/05/02 03:34:26;;;;;;;55.67;41.73;;;;;;;10.11;95.14;99150.05;2807336;84;21138;-66
2021/05/02 03:38:51;;;;;;;50.73;39.18;;;;;;;10.14;95.06;99139.16;2853660;83;21129;-67
2021/05/02 03:42:56;;;;;;;50.88;37.55;;;;;;;10.14;94.96;99121.37;2807246;84;21150;-66
2021/05/02 03:46:59;;;;;;;50.17;35.83;;;;;;;10.15;94.55;99115.06;2853881;83;21117;-67
2021/05/02 03:51:02;;;;;;;46.18;34.60;;;;;;;10.14;94.52;99108.08;2826734;84;21142;-67
2021/05/02 03:55:07;;;;;;;42.95;33.13;;;;;;;10.09;94.58;99094.42;2851744;83;21133;-68
2021/05/02 03:59:17;;;;;;;48.13;36.25;;;;;;;10.07;94.65;99095.08;2780245;84;21138;-67
2021/05/02 04:03:21;;;;;;;44.40;35.50;;;;;;;10.04;94.76;99099.37;2806704;83;21764;-67
2021/05/02 04:07:26;;;;;;;44.30;32.70;;;;;;;10.06;94.81;99100.05;2793582;84;21167;-66
2021/05/02 04:11:30;;;;;;;44.98;33.08;;;;;;;10.04;94.77;99086.56;2853508;83;21503;-67
2021/05/02 04:15:34;;;;;;;43.83;32.93;;;;;;;9.97;95.08;99088.98;2842268;83;21147;-67
2021/05/02 04:19:42;;;;;;;35.38;27.77;;;;;;;9.92;95.28;99092.59;2761023;86;21627;-67
2021/05/02 04:23:46;;;;;;;37.55;25.95;;;;;;;9.90;95.37;99110.00;2806270;83;21108;-66
2021/05/02 04:27:51;;;;;;;40.67;32.98;;;;;;;9.88;95.31;99125.77;2849775;83;21620;-67
2021/05/02 04:31:56;;;;;;;30.97;27.70;;;;;;;9.90;95.54;99131.25;2811992;84;22790;-68
2021/05/02 04:35:59;;;;;;;30.82;23.83;;;;;;;9.89;95.73;99124.78;2833158;84;21137;-67
2021/05/02 04:40:06;;;;;;;28.32;19.92;;;;;;;9.88;95.64;99108.50;2863326;83;21121;-67
2021/05/02 04:44:10;;;;;;;31.90;24.60;;;;;;;9.88;95.40;99115.95;2833422;84;21137;-68
2021/05/02 04:48:13;;;;;;;38.02;24.12;;;;;;;9.85;95.34;99119.77;2863580;83;21125;-67
2021/05/02 04:52:18;;;;;;;35.50;22.60;;;;;;;9.80;95.33;99108.73;2833153;84;21408;-68
2021/05/02 04:56:21;;;;;;;77.97;60.10;;;;;;;9.82;95.34;99105.44;2863625;83;21120;-68
2021/05/02 05:00:25;;;;;;;36.77;27.30;;;;;;;9.82;95.43;99115.23;2831295;84;21164;-67
2021/05/02 05:04:29;;;;;;;40.95;29.37;;;;;;;9.82;95.26;99116.56;2848069;83;21150;-68
2021/05/02 05:08:34;;;;;;;27.02;21.75;;;;;;;9.82;95.25;99118.72;2792510;84;21105;-66
2021/05/02 05:12:39;;;;;;;27.05;20.95;;;;;;;9.82;95.32;99126.68;2834642;83;21160;-66
2021/05/02 05:16:42;;;;;;;24.43;19.73;;;;;;;9.82;95.29;99133.83;2833630;84;21106;-67
2021/05/02 05:20:46;;;;;;;27.17;21.35;;;;;;;9.82;95.17;99132.50;2830094;83;21511;-65
2021/05/02 05:24:50;;;;;;;30.40;23.62;;;;;;;9.78;95.27;99126.64;2815152;84;21135;-65
2021/05/02 05:28:53;;;;;;;26.73;21.33;;;;;;;9.79;95.29;99128.82;2795052;84;21133;-66
2021/05/02 05:33:08;;;;;;;32.63;24.00;;;;;;;9.76;95.34;99115.34;2853980;82;21125;-66
2021/05/02 05:37:12;;;;;;;31.70;23.00;;;;;;;9.73;95.31;99098.38;2807529;84;21158;-66
2021/05/02 05:41:16;;;;;;;31.15;23.50;;;;;;;9.68;95.43;99085.55;2853586;83;21164;-66
2021/05/02 05:45:20;;;;;;;27.20;20.92;;;;;;;9.65;95.55;99067.77;2852397;83;21122;-67
2021/05/02 05:49:24;;;;;;;29.82;24.40;;;;;;;9.58;95.84;99058.23;2849609;83;21122;-66
2021/05/02 05:53:28;;;;;;;25.80;22.87;;;;;;;9.55;95.90;99040.78;2840032;83;21590;-66
2021/05/02 05:57:31;;;;;;;25.65;19.70;;;;;;;9.51;95.92;99023.48;2760771;86;21164;-66
2021/05/02 06:01:35;;;;;;;25.35;20.70;;;;;;;9.47;96.05;99020.80;2835298;83;21603;-67
2021/05/02 06:05:39;;;;;;;28.85;22.15;;;;;;;9.41;96.27;99024.02;2803106;84;21181;-66
2021/05/02 06:09:42;;;;;;;22.48;19.25;;;;;;;9.40;96.53;99013.06;2805679;84;21606;-66
2021/05/02 06:13:46;;;;;;;28.80;21.62;;;;;;;9.39;96.67;98995.00;2766031;84;21144;-66
2021/05/02 06:17:49;;;;;;;26.37;19.55;;;;;;;9.41;96.76;98992.17;2836915;83;21104;-66
2021/05/02 06:21:53;;;;;;;21.10;15.83;;;;;;;9.39;96.80;98982.20;2805704;84;21178;-66
2021/05/02 06:25:58;;;;;;;19.23;15.60;;;;;;;9.39;96.72;98991.49;2853333;82;21117;-66
2021/05/02 06:30:04;;;;;;;21.90;16.35;;;;;;;9.40;96.72;98996.67;2791042;84;21133;-66
2021/05/02 06:34:07;;;;;;;25.12;19.40;;;;;;;9.41;96.62;99000.14;2740372;85;21150;-65
2021/05/02 06:38:11;;;;;;;23.32;20.20;;;;;;;9.39;96.72;98977.75;2808964;84;21567;-65
2021/05/02 06:42:15;;;;;;;24.47;18.37;;;;;;;9.42;96.78;98982.75;2778956;85;21196;-65
2021/05/02 06:46:31;;;;;;;28.60;21.75;;;;;;;9.43;96.87;98982.23;2779297;85;21129;-65
2021/05/02 06:50:35;;;;;;;16.80;14.60;;;;;;;9.40;97.01;98966.14;2779039;85;21209;-65
2021/05/02 06:54:38;;;;;;;23.35;19.30;;;;;;;9.41;97.03;98955.02;2779351;84;21578;-64
2021/05/02 06:58:41;;;;;;;22.37;17.23;;;;;;;9.41;97.05;98965.64;2772386;85;21603;-65
2021/05/02 07:02:45;;;;;;;20.65;16.82;;;;;;;9.44;96.89;98957.39;2787173;84;21187;-66
2021/05/02 07:06:48;;;;;;;27.25;17.32;;;;;;;9.43;96.73;98972.47;2764832;85;21157;-64
2021/05/02 07:10:52;;;;;;;22.30;16.42;;;;;;;9.45;96.59;98957.73;2735862;85;21543;-64
2021/05/02 07:14:56;;;;;;;21.30;16.50;;;;;;;9.49;96.64;98958.25;2750085;85;21157;-65
2021/05/02 07:19:03;;;;;;;21.20;18.27;;;;;;;9.50;96.71;98966.07;2790945;84;21133;-63
2021/05/02 07:23:09;;;;;;;22.35;18.10;;;;;;;9.49;96.75;98974.17;2766033;85;21204;-66
2021/05/02 07:27:16;;;;;;;17.15;15.05;;;;;;;9.50;96.92;98963.42;2733923;87;21196;-63
2021/05/02 07:31:20;;;;;;;19.82;16.40;;;;;;;9.51;96.69;98965.56;2777752;84;21155;-64
2021/05/02 07:35:24;;;;;;;20.90;17.10;;;;;;;9.53;96.69;98985.67;2780369;84;21141;-65
2021/05/02 07:39:29;;;;;;;19.25;15.78;;;;;;;9.54;96.59;98984.69;2853435;83;21113;-63
2021/05/02 07:43:33;;;;;;;16.25;13.55;;;;;;;9.50;96.26;98978.02;2782222;84;21150;-63
2021/05/02 07:47:36;;;;;;;16.12;14.07;;;;;;;9.48;96.17;98972.03;2816666;83;21115;-63
2021/05/02 07:51:40;;;;;;;18.30;14.85;;;;;;;9.52;96.57;98985.81;2770826;84;21181;-62
2021/05/02 07:56:05;;;;;;;17.50;15.10;;;;;;;9.51;96.41;98979.69;2819183;83;21571;-63
2021/05/02 08:00:21;;;;;;;17.05;12.80;;;;;;;9.51;96.58;98995.61;2740248;86;21171;-63
2021/05/02 08:04:27;;;;;;;15.40;13.13;;;;;;;9.49;96.44;98997.59;2734133;85;21201;-63
2021/05/02 08:08:39;;;;;;;13.88;11.00;;;;;;;9.49;96.48;98992.75;2734600;87;21170;-63
2021/05/02 08:12:54;;;;;;;15.03;10.50;;;;;;;9.45;96.43;99002.86;2728270;87;21758;-63
2021/05/02 08:17:01;;;;;;;13.75;11.08;;;;;;;9.45;96.33;99001.53;2730737;87;21209;-62
2021/05/02 08:21:19;;;;;;;16.95;13.85;;;;;;;9.46;96.46;99003.20;2735780;86;21185;-63
2021/05/02 08:25:43;;;;;;;17.80;11.12;;;;;;;9.51;96.37;98994.28;2736167;87;21146;-64
2021/05/02 08:29:54;;;;;;;10.45;8.63;;;;;;;9.53;96.36;98996.30;2735807;87;21137;-64
2021/05/02 08:33:59;;;;;;;13.05;8.00;;;;;;;9.48;96.14;99002.55;2726235;87;21142;-64
2021/05/02 08:38:04;;;;;;;11.48;7.95;;;;;;;9.51;95.79;99002.25;2710719;87;21149;-64
2021/05/02 08:42:08;;;;;;;12.65;8.58;;;;;;;9.56;95.61;99001.30;2733174;87;21592;-63
2021/05/02 08:46:11;;;;;;;11.85;7.30;;;;;;;9.58;95.43;99011.27;2730493;86;21596;-63
2021/05/02 08:50:15;;;;;;;7.72;6.22;;;;;;;9.56;94.69;99011.09;2737791;87;21158;-63
2021/05/02 08:54:20;;;;;;;7.03;6.00;;;;;;;9.61;94.61;99034.52;2736168;87;21131;-63
2021/05/02 08:58:25;;;;;;;9.60;8.03;;;;;;;9.58;93.61;99040.47;2734634;87;21163;-62
2021/05/02 09:02:31;;;;;;;8.63;5.53;;;;;;;9.65;94.27;99039.89;2731912;85;21546;-63
2021/05/02 09:06:36;;;;;;;17.42;11.05;;;;;;;9.60;93.54;99052.28;2732467;87;21132;-63
2021/05/02 09:10:39;;;;;;;22.07;10.68;;;;;;;9.51;93.30;99053.16;2720559;87;21144;-62
2021/05/02 09:14:44;;;;;;;9.63;6.80;;;;;;;9.49;93.11;99045.84;2720318;87;21140;-63
2021/05/02 09:18:49;;;;;;;4.80;3.87;;;;;;;9.36;92.25;99066.11;2720380;87;21669;-62
2021/05/02 09:22:57;;;;;;;3.98;2.98;;;;;;;9.33;92.04;99069.06;2728805;87;21150;-61
2021/05/02 09:27:07;;;;;;;6.08;4.45;;;;;;;9.29;91.46;99079.98;2727011;86;21587;-62
2021/05/02 09:31:18;;;;;;;2.80;2.15;;;;;;;9.31;92.28;99086.95;2726748;87;21122;-59
2021/05/02 09:35:33;;;;;;;7.55;5.45;;;;;;;9.24;91.53;99104.80;2718299;87;21205;-62
2021/05/02 09:39:56;;;;;;;29.00;17.73;;;;;;;9.22;91.37;99103.27;2735344;86;21141;-62
2021/05/02 09:44:01;;;;;;;8.70;5.45;;;;;;;9.23;91.62;99136.27;2731685;87;21114;-61
2021/05/02 09:48:05;;;;;;;9.75;6.22;;;;;;;9.27;93.37;99127.05;2726456;87;21639;-62
2021/05/02 09:52:08;;;;;;;13.58;8.70;;;;;;;9.26;93.04;99147.95;2730663;87;21620;-62
2021/05/02 09:56:15;;;;;;;16.45;10.20;;;;;;;9.19;92.47;99140.20;2732032;87;21162;-62
2021/05/02 10:09:06;;;;;;;6.53;4.92;;;;;;;9.39;93.98;99186.56;2980078;77;22924;-58
2021/05/02 10:13:11;;;;;;;6.30;3.20;;;;;;;9.26;93.57;99215.61;2930504;79;21544;-60
2021/05/02 10:17:16;;;;;;;4.42;3.40;;;;;;;9.13;93.23;99219.05;2920234;79;21571;-58
2021/05/02 10:21:20;;;;;;;4.67;3.75;;;;;;;9.08;93.12;99236.72;2924359;79;21138;-59
2021/05/02 10:25:23;;;;;;;4.42;3.72;;;;;;;9.05;93.16;99241.48;2924691;79;21185;-57
2021/05/02 10:29:32;;;;;;;5.17;4.12;;;;;;;9.03;93.05;99245.59;2902854;79;21161;-59
2021/05/02 10:33:45;;;;;;;6.22;3.70;;;;;;;8.98;92.75;99251.82;2930654;79;21126;-58
2021/05/02 10:37:56;;;;;;;9.80;4.75;;;;;;;9.04;93.66;99237.13;2925578;79;21543;-60
2021/05/02 10:41:59;;;;;;;10.78;5.92;;;;;;;9.09;93.57;99261.44;2922344;79;21886;-61
2021/05/02 10:46:02;;;;;;;4.80;3.10;;;;;;;9.16;93.83;99261.72;2927983;79;21180;-60
2021/05/02 10:50:12;;;;;;;5.92;5.10;;;;;;;9.22;93.44;99276.55;2926640;79;21130;-61
2021/05/02 10:54:27;;;;;;;6.55;5.33;;;;;;;9.35;94.02;99285.57;2932069;79;21164;-62
2021/05/02 10:58:35;;;;;;;21.77;10.28;;;;;;;9.39;93.02;99282.12;2935348;79;21208;-61
2021/05/02 11:02:52;;;;;;;32.28;20.40;;;;;;;9.42;93.39;99289.79;2902721;79;21133;-63
2021/05/02 11:06:55;;;;;;;;;;;;;;;9.36;93.51;99304.49;2899423;81;21554;-62
2021/05/02 11:10:58;;;;;;;6.35;4.30;;;;;;;9.34;93.23;99301.63;2918370;81;20524;-62
2021/05/02 11:15:22;;;;;;;6.62;4.78;;;;;;;9.36;92.90;99294.35;2918879;81;21611;-61
2021/05/02 11:19:36;;;;;;;6.10;4.55;;;;;;;9.32;92.78;99291.64;2917824;81;21161;-61
2021/05/02 11:24:01;;;;;;;4.37;2.80;;;;;;;9.10;91.23;99304.23;2916291;81;21145;-68
2021/05/02 11:28:08;;;;;;;4.55;2.75;;;;;;;8.98;91.32;99305.69;2916618;81;21125;-65
2021/05/02 11:32:11;;;;;;;3.20;2.52;;;;;;;8.77;90.67;99332.83;2894851;81;21156;-62
2021/05/02 11:36:38;;;;;;;3.02;2.27;;;;;;;8.83;91.52;99326.97;2879849;82;21185;-60
2021/05/02 11:40:41;;;;;;;3.10;2.05;;;;;;;8.89;91.52;99330.41;2878222;82;21181;-59
2021/05/02 11:44:49;;;;;;;2.27;2.08;;;;;;;8.85;90.54;99351.06;2871812;82;21528;-61
2021/05/02 11:48:52;;;;;;;3.47;1.62;;;;;;;8.86;90.43;99361.19;2860516;82;21118;-61
2021/05/02 11:52:56;;;;;;;1.75;1.50;;;;;;;8.92;91.07;99368.59;2881539;82;21158;-60
2021/05/02 11:57:00;;;;;;;3.40;2.20;;;;;;;8.85;90.58;99385.53;2873638;82;21564;-61
2021/05/02 12:01:05;;;;;;;6.05;4.12;;;;;;;8.86;91.21;99361.19;2886684;82;21134;-63
2021/05/02 12:05:09;;;;;;;8.03;5.30;;;;;;;8.97;91.50;99374.31;2886145;82;21593;-60
2021/05/02 12:09:20;;;;;;;3.15;2.67;;;;;;;8.97;91.00;99390.23;2897487;81;21755;-60
2021/05/02 12:13:37;;;;;;;5.85;2.83;;;;;;;9.09;91.36;99402.88;2897820;80;21173;-58
2021/05/02 12:17:54;;;;;;;3.08;2.15;;;;;;;9.21;90.99;99402.25;2896967;80;22747;-61
2021/05/02 12:21:56;;;;;;;;;;;;;;;9.28;90.43;99417.98;2888192;82;21125;-60
2021/05/02 12:26:15;;;;;;;2.08;1.72;;;;;;;9.34;90.60;99424.56;2900053;82;20157;-59
2021/05/02 12:30:19;;;;;;;4.12;1.77;;;;;;;9.42;89.77;99430.47;2897390;80;21104;-62
2021/05/02 12:34:26;;;;;;;3.47;1.77;;;;;;;9.61;89.70;99447.38;2883659;82;21610;-60
2021/05/02 12:38:29;;;;;;;2.15;1.95;;;;;;;9.63;88.60;99441.44;2885952;82;21098;-60
2021/05/02 12:42:38;;;;;;;2.02;1.22;;;;;;;9.74;88.92;99450.59;2896995;80;21148;-60
2021/05/02 12:46:46;;;;;;;1.67;1.57;;;;;;;9.80;88.03;99443.39;2896976;80;21161;-58
2021/05/02 12:50:49;;;;;;;1.77;1.67;;;;;;;9.88;86.78;99459.13;2897832;80;21622;-57
2021/05/02 12:54:53;;;;;;;1.32;1.20;;;;;;;9.94;87.65;99474.48;2898724;82;21114;-60
2021/05/02 12:58:59;;;;;;;2.08;1.87;;;;;;;9.93;87.49;99490.08;2897817;80;21130;-60
2021/05/02 13:03:31;;;;;;;2.35;2.15;;;;;;;9.94;87.31;99494.41;2898475;82;21157;-62
2021/05/02 13:07:41;;;;;;;6.10;3.65;;;;;;;9.84;87.45;99502.39;2885653;82;21145;-60
2021/05/02 13:11:44;;;;;;;3.62;3.17;;;;;;;9.77;88.35;99504.76;2894930;82;21141;-61
2021/05/02 13:15:48;;;;;;;3.65;2.65;;;;;;;9.73;88.45;99523.29;2898413;81;21142;-59
2021/05/02 13:19:58;;;;;;;6.85;4.03;;;;;;;9.68;88.20;99522.88;2898711;81;21110;-60
2021/05/02 13:24:08;;;;;;;2.70;2.50;;;;;;;9.74;89.23;99520.98;2897217;82;21544;-61
2021/05/02 13:28:11;;;;;;;3.15;2.95;;;;;;;9.75;87.97;99531.95;2899114;81;21115;-60
2021/05/02 13:32:14;;;;;;;2.50;2.30;;;;;;;9.80;88.17;99537.67;2898481;82;21102;-58
2021/05/02 13:36:17;;;;;;;1.72;1.62;;;;;;;9.90;87.55;99539.52;2897384;82;21165;-60
2021/05/02 13:40:21;;;;;;;2.98;2.67;;;;;;;10.02;88.04;99548.17;2898663;82;21542;-59
2021/05/02 13:44:28;;;;;;;1.62;1.52;;;;;;;10.04;86.65;99555.04;2899851;82;21125;-59
2021/05/02 13:48:33;;;;;;;2.42;2.22;;;;;;;9.84;85.26;99567.47;2899850;82;21085;-61
2021/05/02 13:52:36;;;;;;;2.37;2.08;;;;;;;9.85;86.90;99569.14;2897440;80;21697;-61
2021/05/02 13:56:40;;;;;;;2.75;2.45;;;;;;;9.83;85.91;99573.28;2897429;82;21141;-59
2021/05/02 14:00:43;;;;;;;2.83;1.57;;;;;;;9.82;85.86;99606.11;2894638;82;21180;-60
2021/05/02 14:04:46;;;;;;;2.47;2.27;;;;;;;9.83;85.92;99621.09;2897633;82;21125;-58
2021/05/02 14:08:51;;;;;;;1.98;1.85;;;;;;;9.80;85.56;99620.52;2898014;82;21169;-59
2021/05/02 14:12:54;;;;;;;3.50;1.65;;;;;;;9.84;85.65;99632.55;2897678;82;21618;-58
2021/05/02 14:17:01;;;;;;;2.40;1.67;;;;;;;9.83;85.19;99641.02;2897000;82;21146;-59
2021/05/02 14:21:06;;;;;;;2.33;1.47;;;;;;;9.80;86.30;99656.38;2891031;82;21607;-60
2021/05/02 14:25:13;;;;;;;2.07;1.60;;;;;;;9.83;85.38;99662.27;2888844;80;21177;-61
2021/05/02 14:29:16;;;;;;;2.45;1.75;;;;;;;9.91;85.87;99663.39;2898088;82;21112;-60
2021/05/02 14:33:25;;;;;;;1.87;0.98;;;;;;;10.01;86.09;99674.86;2875995;82;21204;-60
2021/05/02 14:37:34;;;;;;;3.33;1.75;;;;;;;10.20;83.57;99677.20;2882168;82;21125;-61
2021/05/02 14:41:40;;;;;;;2.20;2.00;;;;;;;10.24;83.77;99682.61;2899161;82;21118;-59
2021/05/02 14:45:48;;;;;;;3.17;2.83;;;;;;;10.21;84.16;99692.16;2896893;82;21182;-60
2021/05/02 14:49:57;;;;;;;4.05;2.72;;;;;;;10.15;84.37;99686.43;2897962;80;21077;-59
2021/05/02 14:54:05;;;;;;;9.15;3.30;;;;;;;10.08;83.23;99694.61;2899305;82;21184;-58
2021/05/02 14:58:09;;;;;;;5.87;3.50;;;;;;;10.21;84.05;99706.31;2899641;82;21149;-59
2021/05/02 15:02:14;;;;;;;4.33;2.58;;;;;;;10.27;83.57;99712.89;2895641;81;21201;-58
2021/05/02 15:06:22;;;;;;;;;;;;;;;10.24;82.54;99707.86;2901905;81;21133;-58
2021/05/02 15:10:27;;;;;;;6.10;4.60;;;;;;;10.27;82.95;99727.52;2886296;81;20494;-59
2021/05/02 15:14:33;;;;;;;8.10;5.67;;;;;;;10.22;83.24;99723.94;2887184;82;21134;-58
2021/05/02 15:18:37;;;;;;;5.97;5.17;;;;;;;10.28;83.73;99726.54;2886765;82;21520;-59
2021/05/02 15:22:43;;;;;;;12.03;6.87;;;;;;;10.39;82.44;99741.02;2887330;82;21157;-60
2021/05/02 15:26:49;;;;;;;11.08;7.05;;;;;;;10.61;82.21;99747.11;2887136;82;21111;-58
2021/05/02 15:30:58;;;;;;;19.23;15.63;;;;;;;10.67;80.90;99751.86;2886324;82;21566;-58
2021/05/02 15:35:06;;;;;;;23.22;14.68;;;;;;;10.69;81.08;99763.20;2879295;82;21889;-59
2021/05/02 15:39:11;;;;;;;4.67;4.25;;;;;;;10.72;81.88;99760.77;2876767;82;21101;-58
2021/05/02 15:43:16;;;;;;;5.10;4.60;;;;;;;10.72;81.54;99767.41;2886574;81;21161;-59
2021/05/02 15:47:21;;;;;;;6.37;3.87;;;;;;;10.73;82.12;99753.61;2887733;82;21113;-58
2021/05/02 15:51:27;;;;;;;5.22;4.12;;;;;;;10.67;80.39;99760.32;2888560;82;21126;-58
2021/05/02 15:55:45;;;;;;;11.95;8.35;;;;;;;10.65;80.36;99763.14;2886220;82;21122;-58
2021/05/02 15:59:48;;;;;;;8.43;6.58;;;;;;;10.68;80.89;99765.98;2886976;82;21133;-58
2021/05/02 16:03:55;;;;;;;9.70;7.87;;;;;;;10.74;80.61;99772.58;2885377;81;21106;-58
2021/05/02 16:07:58;;;;;;;7.25;6.53;;;;;;;10.83;81.65;99778.41;2889713;81;21137;-61
2021/05/02 16:12:02;;;;;;;12.93;6.53;;;;;;;10.99;80.74;99774.66;2898775;82;21089;-58
2021/05/02 16:16:05;;;;;;;6.45;5.50;;;;;;;11.22;80.38;99771.72;2900942;82;21169;-58
2021/05/02 16:20:11;;;;;;;7.15;6.20;;;;;;;11.16;78.45;99767.45;2880158;82;21536;-57
2021/05/02 16:24:14;;;;;;;8.15;6.15;;;;;;;11.14;78.30;99784.89;2869649;82;21107;-58
2021/05/02 16:28:17;;;;;;;7.80;6.58;;;;;;;11.18;77.54;99787.61;2875674;82;21157;-59
2021/05/02 16:32:22;;;;;;;10.93;8.25;;;;;;;11.13;77.84;99788.05;2898116;82;21615;-58
2021/05/02 16:36:27;;;;;;;10.98;8.23;;;;;;;11.12;78.84;99799.69;2889562;82;21149;-59
2021/05/02 16:40:30;;;;;;;7.35;6.65;;;;;;;11.19;79.33;99783.14;2899551;82;21133;-58
2021/05/02 16:44:35;;;;;;;6.22;4.75;;;;;;;11.24;77.36;99783.06;2899579;82;21130;-57
2021/05/02 16:48:38;;;;;;;8.98;7.30;;;;;;;11.14;77.32;99798.20;2898621;82;21129;-58
2021/05/02 16:52:41;;;;;;;10.80;8.15;;;;;;;11.12;77.96;99804.16;2898252;82;21156;-59
2021/05/02 16:56:44;;;;;;;8.73;7.25;;;;;;;11.01;77.70;99821.11;2851694;83;21169;-58
2021/05/02 17:00:47;;;;;;;13.35;8.88;;;;;;;10.87;77.85;99822.38;2859375;82;21086;-58
2021/05/02 17:04:51;;;;;;;7.50;6.62;;;;;;;10.75;78.32;99826.98;2898468;82;21139;-59
2021/05/02 17:08:53;;;;;;;8.15;7.00;;;;;;;10.71;78.93;99831.73;2892844;81;21560;-59
2021/05/02 17:12:56;;;;;;;7.45;6.65;;;;;;;10.64;78.86;99826.63;2886019;82;21572;-58
2021/05/02 17:16:59;;;;;;;10.72;8.30;;;;;;;10.62;79.57;99830.39;2887366;82;21109;-58
2021/05/02 17:21:04;;;;;;;9.80;8.68;;;;;;;10.57;79.28;99836.97;2887747;82;21109;-59
2021/05/02 17:25:09;;;;;;;9.80;8.80;;;;;;;10.52;80.02;99842.34;2887495;82;21138;-59
2021/05/02 17:29:12;;;;;;;10.38;9.35;;;;;;;10.48;80.12;99848.41;2887390;82;21106;-58
2021/05/02 17:33:15;;;;;;;9.25;8.35;;;;;;;10.43;79.97;99854.16;2886288;82;21513;-60
2021/05/02 17:37:20;;;;;;;9.73;8.33;;;;;;;10.43;80.46;99855.48;2885615;82;21154;-59
2021/05/02 17:41:23;;;;;;;10.20;9.05;;;;;;;10.40;80.16;99861.05;2877096;82;21738;-59
2021/05/02 17:45:27;;;;;;;11.97;9.78;;;;;;;10.35;80.14;99861.09;2863321;81;21162;-59
2021/05/02 17:49:31;;;;;;;11.83;8.13;;;;;;;10.35;80.15;99872.55;2886614;82;21090;-59
2021/05/02 17:53:39;;;;;;;11.43;10.25;;;;;;;10.31;80.57;99871.14;2885650;82;21627;-58
2021/05/02 17:57:45;;;;;;;16.17;11.33;;;;;;;10.31;81.06;99871.14;2885614;82;21608;-59
2021/05/02 18:01:48;;;;;;;;;;;;;;;10.34;81.78;99881.50;2888322;82;21114;-58
2021/05/02 18:05:51;;;;;;;14.55;13.05;;;;;;;10.36;82.43;99892.02;2885693;82;20193;-59
2021/05/02 18:09:54;;;;;;;17.17;12.18;;;;;;;10.37;82.33;99903.83;2890046;81;21646;-58
2021/05/02 18:13:58;;;;;;;12.43;11.08;;;;;;;10.36;82.13;99907.97;2897900;82;21559;-58
2021/05/02 18:18:01;;;;;;;10.30;9.08;;;;;;;10.28;81.67;99910.78;2898353;82;21555;-59
2021/05/02 18:22:04;;;;;;;11.60;8.75;;;;;;;10.23;81.52;99918.83;2897228;82;21137;-59
2021/05/02 18:26:09;;;;;;;9.08;7.95;;;;;;;10.20;81.44;99921.25;2897583;82;21098;-58
2021/05/02 18:30:18;;;;;;;11.83;9.95;;;;;;;10.18;80.86;99935.64;2898108;81;21543;-57
2021/05/02 18:34:29;;;;;;;18.55;13.43;;;;;;;10.15;81.64;99932.27;2860158;82;21125;-58
2021/05/02 18:38:32;;;;;;;11.55;10.40;;;;;;;10.14;81.98;99934.58;2898166;80;21133;-59
2021/05/02 18:42:35;;;;;;;19.12;16.20;;;;;;;10.11;82.70;99933.52;2893266;82;21579;-59
2021/05/02 18:46:42;;;;;;;20.15;18.17;;;;;;;10.20;83.68;99935.88;2899027;80;21113;-58
2021/05/02 18:50:45;;;;;;;19.93;17.83;;;;;;;10.21;84.52;99943.34;2898602;80;21153;-59
2021/05/02 18:54:52;;;;;;;24.15;19.30;;;;;;;10.19;85.09;99947.95;2898804;80;21137;-58
2021/05/02 18:58:56;;;;;;;18.82;15.83;;;;;;;10.09;85.52;99958.06;2898098;82;21110;-58
2021/05/02 19:02:59;;;;;;;20.65;18.48;;;;;;;10.01;86.08;99965.82;2898029;80;21130;-60
2021/05/02 19:07:03;;;;;;;19.60;17.55;;;;;;;9.98;86.73;99974.91;2897910;80;21189;-58
2021/05/02 19:11:08;;;;;;;21.68;17.48;;;;;;;9.96;87.00;99977.33;2870894;82;21114;-58
2021/05/02 19:15:12;;;;;;;21.07;18.82;;;;;;;9.93;87.08;99974.94;2898654;80;21113;-58
2021/05/02 19:19:16;;;;;;;21.02;18.15;;;;;;;9.95;87.41;99988.94;2898329;80;21571;-58
2021/05/02 19:23:19;;;;;;;24.02;21.52;;;;;;;9.99;87.58;99986.37;2897615;80;21139;-59